createdAt,value
2019-05-11T00:01:00.095Z,8.20
2019-05-11T00:03:31.906Z,8.20
2019-05-11T00:06:03.540Z,8.20
2019-05-11T00:08:35.681Z,8.10
2019-05-11T00:11:07.512Z,8.10
2019-05-11T00:13:39.129Z,8.00
2019-05-11T00:16:10.717Z,8.00
2019-05-11T00:18:42.834Z,8.00
2019-05-11T00:21:14.487Z,8.00
2019-05-11T00:23:46.474Z,8.00
2019-05-11T00:26:17.897Z,8.00
2019-05-11T00:28:49.241Z,8.00
2019-05-11T00:31:21.057Z,8.00
2019-05-11T00:33:52.669Z,8.00
2019-05-11T00:36:24.626Z,8.00
2019-05-11T00:38:56.331Z,8.10
2019-05-11T00:41:27.691Z,8.10
2019-05-11T00:43:59.726Z,8.10
2019-05-11T00:46:31.781Z,8.10
2019-05-11T00:49:03.711Z,8.10
2019-05-11T00:51:35.033Z,8.10
2019-05-11T00:54:06.123Z,8.20
2019-05-11T00:56:37.917Z,8.20
2019-05-11T00:59:21.377Z,8.20
2019-05-11T01:01:43.391Z,8.20
2019-05-11T01:04:15.631Z,8.20
2019-05-11T01:06:47.432Z,8.10
2019-05-11T01:09:18.447Z,8.10
2019-05-11T01:11:50.102Z,8.10
2019-05-11T01:14:22.118Z,8.20
2019-05-11T01:16:53.434Z,8.20
2019-05-11T01:19:25.183Z,8.20
2019-05-11T01:21:57.108Z,8.20
2019-05-11T01:24:29.007Z,8.20
2019-05-11T01:27:00.718Z,8.20
2019-05-11T01:29:32.055Z,8.20
2019-05-11T01:32:03.694Z,8.20
2019-05-11T01:34:35.550Z,8.30
2019-05-11T01:37:07.576Z,8.30
2019-05-11T01:39:39.148Z,8.30
2019-05-11T01:42:10.779Z,8.30
2019-05-11T01:44:42.077Z,8.20
2019-05-11T01:47:13.998Z,8.20
2019-05-11T01:49:45.633Z,8.30
2019-05-11T01:52:16.986Z,8.30
2019-05-11T01:54:48.569Z,8.20
2019-05-11T01:57:20.564Z,8.20
2019-05-11T01:59:52.810Z,8.30
2019-05-11T02:02:24.191Z,8.20
2019-05-11T02:05:32.729Z,8.10
2019-05-11T02:08:04.717Z,8.00
2019-05-11T02:10:35.739Z,7.90
2019-05-11T02:13:07.331Z,7.80
2019-05-11T02:15:38.716Z,7.80
2019-05-11T02:18:10.750Z,7.80
2019-05-11T02:20:42.751Z,7.80
2019-05-11T02:23:14.340Z,7.70
2019-05-11T02:25:46.351Z,7.70
2019-05-11T02:28:17.956Z,7.70
2019-05-11T02:30:49.510Z,7.60
2019-05-11T02:33:21.687Z,7.60
2019-05-11T02:35:52.713Z,7.60
2019-05-11T02:38:24.438Z,7.70
2019-05-11T02:40:55.943Z,7.70
2019-05-11T02:43:27.542Z,7.70
2019-05-11T02:45:59.283Z,7.80
2019-05-11T02:48:30.913Z,7.80
2019-05-11T02:51:03.343Z,7.90
2019-05-11T02:53:36.573Z,8.00
2019-05-11T02:56:08.148Z,8.00
2019-05-11T02:58:39.161Z,8.00
2019-05-11T03:01:11.018Z,8.00
2019-05-11T03:03:43.107Z,8.10
2019-05-11T03:06:15.756Z,8.10
2019-05-11T03:08:47.091Z,8.10
2019-05-11T03:11:18.962Z,8.10
2019-05-11T03:13:51.005Z,8.20
2019-05-11T03:16:22.413Z,8.20
2019-05-11T03:18:54.053Z,8.10
2019-05-11T03:21:25.807Z,8.20
2019-05-11T03:23:57.162Z,8.30
2019-05-11T03:26:28.187Z,8.30
2019-05-11T03:28:59.844Z,8.20
2019-05-11T03:31:31.740Z,8.20
2019-05-11T03:34:02.754Z,8.20
2019-05-11T03:36:34.087Z,8.30
2019-05-11T03:39:06.089Z,8.30
2019-05-11T03:41:38.040Z,8.40
2019-05-11T03:44:09.638Z,8.40
2019-05-11T03:46:40.999Z,8.50
2019-05-11T03:49:12.366Z,8.60
2019-05-11T03:51:44.561Z,8.60
2019-05-11T03:54:16.509Z,8.60
2019-05-11T03:56:47.883Z,8.60
2019-05-11T03:59:19.472Z,8.70
2019-05-11T04:01:50.840Z,8.80
2019-05-11T04:04:22.953Z,8.80
2019-05-11T04:06:54.849Z,8.80
2019-05-11T04:09:26.368Z,8.90
2019-05-11T04:11:57.978Z,8.90
2019-05-11T04:14:29.541Z,8.90
2019-05-11T04:17:01.729Z,9.00
2019-05-11T04:19:33.632Z,9.00
2019-05-11T04:22:05.187Z,9.00
2019-05-11T04:24:37.068Z,9.00
2019-05-11T04:27:09.379Z,9.00
2019-05-11T04:29:40.685Z,9.10
2019-05-11T04:32:12.224Z,9.20
2019-05-11T04:34:44.407Z,9.30
2019-05-11T04:37:15.762Z,9.30
2019-05-11T04:39:47.614Z,9.50
2019-05-11T04:42:19.256Z,9.60
2019-05-11T04:44:52.508Z,9.70
2019-05-11T04:47:24.184Z,9.60
2019-05-11T04:49:56.113Z,9.60
2019-05-11T04:52:28.014Z,9.70
2019-05-11T04:54:59.695Z,9.80
2019-05-11T04:57:31.251Z,9.70
2019-05-11T05:00:02.265Z,9.70
2019-05-11T05:02:34.982Z,9.70
2019-05-11T05:05:06.738Z,9.70
2019-05-11T05:07:47.982Z,9.80
2019-05-11T05:10:13.989Z,9.80
2019-05-11T05:12:50.794Z,9.80
2019-05-11T05:15:18.599Z,9.80
2019-05-11T05:17:49.604Z,9.90
2019-05-11T05:20:21.086Z,9.90
2019-05-11T05:22:52.983Z,9.90
2019-05-11T05:25:24.565Z,9.90
2019-05-11T05:27:56.508Z,9.90
2019-05-11T05:30:28.578Z,9.90
2019-05-11T05:33:00.146Z,9.90
2019-05-11T05:35:31.796Z,9.90
2019-05-11T05:38:03.455Z,10.00
2019-05-11T05:40:35.698Z,9.90
2019-05-11T05:43:08.065Z,9.90
2019-05-11T05:45:39.748Z,9.90
2019-05-11T05:48:11.653Z,9.90
2019-05-11T05:50:43.034Z,9.90
2019-05-11T05:53:14.579Z,9.90
2019-05-11T05:55:46.137Z,9.80
2019-05-11T05:58:17.942Z,9.70
2019-05-11T06:00:50.072Z,9.60
2019-05-11T06:03:21.936Z,9.40
2019-05-11T06:05:53.766Z,9.40
2019-05-11T06:08:25.467Z,9.40
2019-05-11T06:10:57.114Z,9.30
2019-05-11T06:13:43.935Z,9.20
2019-05-11T06:16:02.656Z,9.20
2019-05-11T06:18:34.005Z,9.20
2019-05-11T06:21:06.078Z,9.30
2019-05-11T06:23:37.954Z,9.30
2019-05-11T06:26:09.443Z,9.20
2019-05-11T06:28:41.378Z,9.20
2019-05-11T06:31:12.813Z,9.20
2019-05-11T06:33:44.174Z,9.30
2019-05-11T06:36:16.702Z,9.40
2019-05-11T06:38:48.044Z,9.50
2019-05-11T06:41:19.721Z,9.50
2019-05-11T06:44:01.401Z,9.60
2019-05-11T06:46:25.481Z,9.70
2019-05-11T06:48:56.822Z,9.60
2019-05-11T06:51:28.409Z,9.70
2019-05-11T06:53:59.444Z,9.70
2019-05-11T06:56:31.340Z,9.70
2019-05-11T06:59:02.349Z,9.50
2019-05-11T07:01:34.203Z,9.40
2019-05-11T07:04:06.375Z,9.20
2019-05-11T07:06:37.994Z,9.20
2019-05-11T07:09:09.384Z,9.30
2019-05-11T07:11:41.339Z,9.30
2019-05-11T07:14:20.390Z,9.30
2019-05-11T07:16:48.336Z,9.30
2019-05-11T07:19:20.417Z,9.30
2019-05-11T07:21:51.428Z,9.30
2019-05-11T07:24:23.124Z,9.30
2019-05-11T07:26:54.435Z,9.30
2019-05-11T07:29:26.348Z,9.30
2019-05-11T07:32:05.586Z,9.40
2019-05-11T07:34:30.789Z,9.40
2019-05-11T07:37:03.135Z,9.50
2019-05-11T07:39:34.854Z,9.60
2019-05-11T07:42:07.790Z,9.80
2019-05-11T07:44:41.719Z,10.00
2019-05-11T07:47:12.088Z,10.10
2019-05-11T07:49:43.244Z,10.20
2019-05-11T07:52:18.146Z,10.00
2019-05-11T07:54:52.810Z,10.00
2019-05-11T07:57:22.597Z,10.00
2019-05-11T07:59:54.862Z,10.00
2019-05-11T08:02:28.525Z,10.10
2019-05-11T08:04:59.215Z,10.10
2019-05-11T08:07:30.745Z,10.00
2019-05-11T08:10:03.027Z,10.00
2019-05-11T08:12:34.038Z,10.00
2019-05-11T08:15:11.757Z,10.00
2019-05-11T08:17:39.034Z,10.00
2019-05-11T08:20:11.365Z,9.80
2019-05-11T08:22:43.925Z,9.60
2019-05-11T08:25:18.061Z,9.40
2019-05-11T08:27:48.727Z,9.40
2019-05-11T08:30:20.568Z,9.40
2019-05-11T08:32:52.216Z,9.50
2019-05-11T08:35:23.641Z,9.60
2019-05-11T08:37:55.432Z,9.60
2019-05-11T08:40:28.834Z,9.70
2019-05-11T08:43:00.667Z,9.70
2019-05-11T08:45:33.773Z,9.70
2019-05-11T08:48:05.119Z,9.80
2019-05-11T08:50:38.306Z,9.80
2019-05-11T08:53:09.975Z,9.80
2019-05-11T08:55:41.617Z,9.90
2019-05-11T08:58:13.224Z,9.90
2019-05-11T09:00:44.351Z,9.80
2019-05-11T09:03:17.890Z,9.70
2019-05-11T09:05:49.426Z,9.60
2019-05-11T09:08:21.317Z,9.50
2019-05-11T09:10:54.162Z,9.50
2019-05-11T09:13:27.931Z,9.60
2019-05-11T09:15:59.797Z,9.60
2019-05-11T09:18:31.133Z,9.50
2019-05-11T09:21:02.427Z,9.60
2019-05-11T09:23:38.239Z,9.70
2019-05-11T09:26:08.813Z,9.80
2019-05-11T09:28:41.035Z,9.70
2019-05-11T09:31:12.661Z,9.60
2019-05-11T09:33:44.933Z,9.60
2019-05-11T09:36:18.083Z,9.70
2019-05-11T09:38:49.830Z,9.70
2019-05-11T09:41:20.855Z,9.70
2019-05-11T09:43:53.578Z,9.60
2019-05-11T09:46:27.744Z,9.60
2019-05-11T09:48:58.968Z,9.60
2019-05-11T09:51:31.286Z,9.50
2019-05-11T09:54:03.108Z,9.50
2019-05-11T09:56:35.395Z,9.50
2019-05-11T09:59:08.814Z,9.60
2019-05-11T10:01:39.997Z,9.60
2019-05-11T10:04:11.612Z,9.50
2019-05-11T10:06:43.279Z,9.50
2019-05-11T10:09:15.393Z,9.40
2019-05-11T10:11:47.980Z,9.50
2019-05-11T10:14:19.505Z,9.50
2019-05-11T10:16:51.180Z,9.50
2019-05-11T10:19:22.465Z,9.50
2019-05-11T10:21:53.727Z,9.60
2019-05-11T10:24:24.722Z,9.50
2019-05-11T10:26:57.798Z,9.50
2019-05-11T10:29:29.983Z,9.60
2019-05-11T10:32:01.300Z,9.60
2019-05-11T10:34:33.236Z,9.50
2019-05-11T10:37:04.592Z,9.50
2019-05-11T10:39:38.318Z,9.60
2019-05-11T10:42:10.159Z,9.60
2019-05-11T10:44:41.167Z,9.60
2019-05-11T10:47:13.144Z,9.50
2019-05-11T10:49:44.674Z,9.50
2019-05-11T10:52:18.000Z,9.60
2019-05-11T10:54:50.833Z,9.60
2019-05-11T10:57:22.538Z,9.50
2019-05-11T10:59:53.981Z,9.50
2019-05-11T11:02:27.325Z,9.50
2019-05-11T11:04:58.984Z,9.60
2019-05-11T11:07:30.946Z,9.50
2019-05-11T11:10:02.938Z,9.50
2019-05-11T11:12:34.299Z,9.50
2019-05-11T11:15:07.917Z,9.50
2019-05-11T11:17:39.539Z,9.50
2019-05-11T11:20:11.743Z,9.50
2019-05-11T11:22:44.423Z,9.50
2019-05-11T11:25:17.980Z,9.50
2019-05-11T11:27:49.840Z,9.50
2019-05-11T11:30:22.236Z,9.50
2019-05-11T11:32:53.570Z,9.50
2019-05-11T11:35:25.372Z,9.50
2019-05-11T11:37:58.633Z,9.60
2019-05-11T11:40:30.363Z,9.50
2019-05-11T11:43:01.649Z,9.40
2019-05-11T11:45:33.608Z,9.40
2019-05-11T11:48:05.057Z,9.50
2019-05-11T11:50:37.762Z,9.50
2019-05-11T11:53:09.188Z,9.40
2019-05-11T11:55:41.276Z,9.40
2019-05-11T11:58:13.181Z,9.40
2019-05-11T12:00:44.946Z,9.40
2019-05-11T12:03:18.553Z,9.40
2019-05-11T12:05:50.103Z,9.50
2019-05-11T12:08:21.203Z,9.50
2019-05-11T12:10:53.375Z,9.50
2019-05-11T12:13:27.412Z,9.50
2019-05-11T12:15:58.875Z,9.50
2019-05-11T12:18:30.676Z,9.50
2019-05-11T12:21:02.279Z,9.50
2019-05-11T12:23:33.951Z,9.60
2019-05-11T12:26:05.358Z,9.70
2019-05-11T12:28:38.209Z,9.60
2019-05-11T12:31:10.624Z,9.60
2019-05-11T12:33:42.236Z,9.50
2019-05-11T12:36:13.743Z,9.40
2019-05-11T12:38:45.640Z,9.30
2019-05-11T12:41:18.970Z,9.30
2019-05-11T12:43:50.572Z,9.30
2019-05-11T12:46:22.459Z,9.20
2019-05-11T12:48:56.610Z,9.20
2019-05-11T12:51:27.937Z,9.20
2019-05-11T12:53:59.340Z,9.20
2019-05-11T12:56:30.757Z,9.30
2019-05-11T12:59:02.239Z,9.30
2019-05-11T13:01:33.951Z,9.30
2019-05-11T13:04:05.886Z,9.20
2019-05-11T13:06:38.516Z,9.20
2019-05-11T13:09:09.963Z,9.20
2019-05-11T13:11:40.985Z,9.20
2019-05-11T13:14:12.306Z,9.20
2019-05-11T13:16:44.402Z,9.20
2019-05-11T13:19:17.598Z,9.20
2019-05-11T13:21:49.589Z,9.20
2019-05-11T13:24:21.293Z,9.30
2019-05-11T13:26:53.172Z,9.30
2019-05-11T13:29:24.851Z,9.30
2019-05-11T13:31:58.873Z,9.40
2019-05-11T13:34:31.496Z,9.40
2019-05-11T13:37:04.045Z,9.20
2019-05-11T13:39:37.838Z,9.20
2019-05-11T13:42:08.687Z,9.20
2019-05-11T13:44:40.050Z,9.10
2019-05-11T13:47:11.570Z,9.10
2019-05-11T13:49:43.547Z,9.20
2019-05-11T13:52:14.967Z,9.20
2019-05-11T13:54:48.273Z,9.20
2019-05-11T13:57:20.112Z,9.30
2019-05-11T13:59:52.118Z,9.30
2019-05-11T14:02:23.780Z,9.30
2019-05-11T14:04:55.152Z,9.30
2019-05-11T14:07:27.653Z,9.30
2019-05-11T14:09:59.630Z,9.30
2019-05-11T14:12:30.939Z,9.30
2019-05-11T14:15:02.536Z,9.30
2019-05-11T14:17:34.074Z,9.30
2019-05-11T14:20:08.919Z,9.40
2019-05-11T14:22:40.940Z,9.40
2019-05-11T14:25:12.666Z,9.50
2019-05-11T14:27:44.828Z,9.50
2019-05-11T14:30:18.417Z,9.40
2019-05-11T14:32:49.944Z,9.40
2019-05-11T14:35:22.049Z,9.40
2019-05-11T14:37:53.680Z,9.40
2019-05-11T14:40:25.632Z,9.40
2019-05-11T14:42:58.192Z,9.40
2019-05-11T14:45:29.973Z,9.50
2019-05-11T14:48:01.627Z,9.40
2019-05-11T14:50:33.062Z,9.40
2019-05-11T14:53:04.447Z,9.40
2019-05-11T14:55:38.114Z,9.40
2019-05-11T14:58:09.582Z,9.40
2019-05-11T15:00:41.451Z,9.50
2019-05-11T15:03:13.250Z,9.50
2019-05-11T15:05:44.827Z,9.50
2019-05-11T15:08:18.021Z,9.50
2019-05-11T15:10:49.725Z,9.50
2019-05-11T15:13:21.304Z,9.40
2019-05-11T15:15:53.005Z,9.40
2019-05-11T15:18:37.967Z,9.50
2019-05-11T15:20:58.139Z,9.50
2019-05-11T15:23:30.276Z,9.50
2019-05-11T15:26:01.630Z,9.50
2019-05-11T15:28:33.551Z,9.50
2019-05-11T15:31:08.112Z,9.50
2019-05-11T15:33:39.204Z,9.50
2019-05-11T15:36:10.725Z,9.40
2019-05-11T15:38:42.301Z,9.40
2019-05-11T15:41:13.951Z,9.40
2019-05-11T15:43:47.759Z,9.40
2019-05-11T15:46:19.905Z,9.40
2019-05-11T15:48:58.911Z,9.40
2019-05-11T15:51:25.114Z,9.40
2019-05-11T15:53:58.699Z,9.40
2019-05-11T15:56:30.042Z,9.30
2019-05-11T15:59:01.696Z,9.30
2019-05-11T16:01:33.004Z,9.20
2019-05-11T16:04:04.406Z,9.20
2019-05-11T16:06:36.074Z,9.20
2019-05-11T16:09:08.650Z,9.20
2019-05-11T16:11:40.539Z,9.20
2019-05-11T16:14:12.289Z,9.20
2019-05-11T16:16:44.177Z,9.20
2019-05-11T16:19:15.689Z,9.10
2019-05-11T16:21:46.954Z,9.10
2019-05-11T16:24:18.223Z,9.10
2019-05-11T16:26:50.382Z,9.10
2019-05-11T16:29:22.464Z,9.10
2019-05-11T16:31:54.317Z,9.10
2019-05-11T16:34:27.786Z,9.10
2019-05-11T16:36:59.705Z,9.10
2019-05-11T16:39:31.338Z,9.10
2019-05-11T16:42:02.677Z,9.10
2019-05-11T16:44:33.997Z,9.00
2019-05-11T16:47:07.716Z,9.00
2019-05-11T16:49:38.665Z,9.00
2019-05-11T16:52:10.959Z,9.00
2019-05-11T16:54:42.508Z,8.90
2019-05-11T16:57:13.937Z,9.00
2019-05-11T16:59:45.197Z,9.10
2019-05-11T17:02:18.740Z,9.00
2019-05-11T17:04:50.389Z,9.00
2019-05-11T17:07:21.764Z,9.10
2019-05-11T17:09:53.337Z,9.10
2019-05-11T17:12:24.662Z,9.10
2019-05-11T17:14:59.134Z,9.10
2019-05-11T17:17:31.095Z,9.00
2019-05-11T17:20:02.676Z,9.10
2019-05-11T17:22:35.103Z,9.10
2019-05-11T17:25:08.603Z,9.10
2019-05-11T17:27:40.363Z,9.10
2019-05-11T17:30:12.995Z,9.10
2019-05-11T17:32:44.987Z,9.00
2019-05-11T17:35:17.745Z,9.00
2019-05-11T17:37:49.850Z,8.90
2019-05-11T17:40:23.536Z,8.90
2019-05-11T17:42:58.358Z,8.90
2019-05-11T17:45:30.155Z,8.90
2019-05-11T17:48:02.115Z,8.80
2019-05-11T17:50:33.749Z,8.80
2019-05-11T17:53:05.473Z,8.90
2019-05-11T17:55:38.364Z,8.80
2019-05-11T17:58:09.545Z,8.80
2019-05-11T18:00:41.243Z,8.80
2019-05-11T18:03:13.255Z,8.80
2019-05-11T18:05:44.698Z,8.80
2019-05-11T18:08:18.620Z,8.80
2019-05-11T18:10:50.385Z,8.80
2019-05-11T18:13:22.312Z,8.70
2019-05-11T18:15:53.895Z,8.70
2019-05-11T18:18:25.518Z,8.70
2019-05-11T18:20:57.889Z,8.70
2019-05-11T18:23:29.413Z,8.60
2019-05-11T18:26:00.700Z,8.70
2019-05-11T18:28:31.753Z,8.60
2019-05-11T18:31:03.077Z,8.60
2019-05-11T18:33:34.989Z,8.60
2019-05-11T18:36:08.046Z,8.70
2019-05-11T18:38:39.763Z,8.70
2019-05-11T18:41:11.542Z,8.70
2019-05-11T18:43:42.578Z,8.70
2019-05-11T18:46:14.430Z,8.70
2019-05-11T18:48:45.999Z,8.70
2019-05-11T18:51:17.639Z,8.70
2019-05-11T18:53:49.791Z,8.70
2019-05-11T18:56:21.135Z,8.70
2019-05-11T18:58:52.921Z,8.70
2019-05-11T19:01:24.579Z,8.80
2019-05-11T19:03:56.667Z,8.70
2019-05-11T19:06:28.628Z,8.80
2019-05-11T19:09:00.393Z,8.80
2019-05-11T19:11:33.692Z,8.80
2019-05-11T19:14:05.292Z,8.80
2019-05-11T19:16:39.022Z,8.80
2019-05-11T19:19:10.807Z,8.80
2019-05-11T19:21:42.077Z,8.80
2019-05-11T19:24:13.400Z,8.80
2019-05-11T19:26:45.010Z,8.70
2019-05-11T19:29:17.943Z,8.70
2019-05-11T19:31:49.965Z,8.70
2019-05-11T19:34:21.671Z,8.80
2019-05-11T19:36:53.913Z,8.80
2019-05-11T19:39:25.508Z,8.80
2019-05-11T19:41:58.591Z,8.80
2019-05-11T19:44:30.507Z,8.80
2019-05-11T19:47:01.840Z,8.80
2019-05-11T19:49:33.492Z,8.70
2019-05-11T19:52:05.216Z,8.80
2019-05-11T19:54:38.229Z,8.80
2019-05-11T19:57:10.247Z,8.80
2019-05-11T19:59:42.156Z,8.80
2019-05-11T20:02:14.001Z,8.80
2019-05-11T20:04:48.012Z,8.90
2019-05-11T20:07:18.874Z,8.80
2019-05-11T20:09:50.524Z,8.80
2019-05-11T20:12:22.439Z,8.90
2019-05-11T20:14:54.283Z,8.80
2019-05-11T20:17:28.675Z,8.80
2019-05-11T20:20:01.180Z,8.90
2019-05-11T20:22:33.870Z,8.90
2019-05-11T20:25:05.931Z,8.90
2019-05-11T20:27:38.813Z,8.90
2019-05-11T20:30:10.276Z,8.80
2019-05-11T20:32:41.823Z,8.80
2019-05-11T20:35:13.857Z,8.80
2019-05-11T20:37:46.514Z,8.80
2019-05-11T20:40:18.495Z,8.80
2019-05-11T20:42:50.319Z,8.80
2019-05-11T20:45:21.973Z,8.80
2019-05-11T20:47:54.088Z,8.80
2019-05-11T20:50:25.695Z,8.80
2019-05-11T20:52:58.172Z,8.80
2019-05-11T20:55:29.926Z,8.80
2019-05-11T20:58:01.549Z,8.80
2019-05-11T21:00:33.668Z,8.80
2019-05-11T21:03:07.854Z,8.80
2019-05-11T21:05:38.188Z,8.90
2019-05-11T21:08:10.257Z,8.80
2019-05-11T21:10:41.939Z,8.80
2019-05-11T21:13:13.480Z,8.80
2019-05-11T21:15:45.231Z,8.80
2019-05-11T21:18:18.412Z,8.80
2019-05-11T21:20:49.796Z,8.80
2019-05-11T21:23:21.371Z,8.80
2019-05-11T21:25:52.664Z,8.80
2019-05-11T21:28:24.000Z,8.80
2019-05-11T21:30:55.331Z,8.70
2019-05-11T21:33:28.353Z,8.80
2019-05-11T21:36:00.716Z,8.80
2019-05-11T21:38:33.468Z,8.80
2019-05-11T21:41:05.255Z,8.90
2019-05-11T21:43:37.729Z,8.90
2019-05-11T21:46:10.014Z,8.80
2019-05-11T21:48:41.777Z,8.80
2019-05-11T21:51:13.912Z,8.80
2019-05-11T21:53:48.276Z,8.70
2019-05-11T21:56:19.251Z,8.70
2019-05-11T21:58:53.638Z,8.70
2019-05-11T22:01:24.624Z,8.70
2019-05-11T22:03:56.032Z,8.70
2019-05-11T22:06:30.210Z,8.70
2019-05-11T22:09:00.432Z,8.70
2019-05-11T22:11:33.544Z,8.80
2019-05-11T22:14:04.623Z,8.70
2019-05-11T22:16:38.166Z,8.70
2019-05-11T22:19:09.543Z,8.80
2019-05-11T22:21:40.644Z,8.70
2019-05-11T22:24:12.761Z,8.70
2019-05-11T22:26:44.612Z,8.70
2019-05-11T22:29:18.051Z,8.70
2019-05-11T22:31:49.183Z,8.60
2019-05-11T22:34:21.057Z,8.70
2019-05-11T22:36:52.071Z,8.60
2019-05-11T22:39:23.997Z,8.50
2019-05-11T22:41:55.302Z,8.50
2019-05-11T22:44:27.926Z,8.60
2019-05-11T22:47:00.266Z,8.60
2019-05-11T22:49:32.053Z,8.70
2019-05-11T22:52:03.886Z,8.70
2019-05-11T22:54:38.183Z,8.70
2019-05-11T22:57:09.319Z,8.70
2019-05-11T22:59:40.798Z,8.70
2019-05-11T23:02:11.851Z,8.60
2019-05-11T23:04:43.118Z,8.60
2019-05-11T23:07:15.692Z,8.50
2019-05-11T23:09:47.397Z,8.50
2019-05-11T23:12:19.266Z,8.40
2019-05-11T23:15:09.131Z,8.40
2019-05-11T23:17:40.652Z,8.30
2019-05-11T23:20:12.476Z,8.30
2019-05-11T23:22:57.909Z,8.30
2019-05-11T23:25:23.717Z,8.20
2019-05-11T23:27:55.293Z,8.10
2019-05-11T23:30:28.082Z,8.10
2019-05-11T23:32:59.801Z,8.00
2019-05-11T23:35:32.520Z,8.00
2019-05-11T23:38:03.879Z,7.90
2019-05-11T23:40:37.669Z,7.80
2019-05-11T23:43:09.029Z,7.80
2019-05-11T23:45:41.044Z,7.70
2019-05-11T23:48:12.394Z,7.70
2019-05-11T23:50:43.977Z,7.70
2019-05-11T23:53:17.861Z,7.70
2019-05-11T23:55:49.811Z,7.70
2019-05-11T23:58:21.394Z,7.60
